createdAt,value
2022-12-01T00:02:51.695Z,14.80
2022-12-01T00:07:54.109Z,14.00
2022-12-01T00:13:06.834Z,12.63
2022-12-01T00:18:10.689Z,11.90
2022-12-01T00:23:12.748Z,12.80
2022-12-01T00:28:14.582Z,13.25
2022-12-01T00:33:16.438Z,12.95
2022-12-01T00:38:21.316Z,11.80
2022-12-01T00:43:24.375Z,14.90
2022-12-01T00:48:26.287Z,13.50
2022-12-01T00:53:28.194Z,12.98
2022-12-01T00:58:30.067Z,13.20
2022-12-01T01:03:32.792Z,13.05
2022-12-01T01:08:35.343Z,13.38
2022-12-01T01:13:38.569Z,13.98
2022-12-01T01:18:40.594Z,14.50
2022-12-01T01:23:43.178Z,12.93
2022-12-01T01:28:46.391Z,12.85
2022-12-01T01:33:49.965Z,12.15
2022-12-01T01:38:53.449Z,12.57
2022-12-01T01:44:24.849Z,12.93
2022-12-01T01:49:26.856Z,13.40
2022-12-01T01:54:35.261Z,11.68
2022-12-01T01:59:43.078Z,14.63
2022-12-01T02:09:55.546Z,11.02
2022-12-01T02:15:17.313Z,11.50
2022-12-01T02:20:42.763Z,11.20
2022-12-01T02:26:14.886Z,11.93
2022-12-01T02:31:22.794Z,11.00
2022-12-01T02:36:32.844Z,12.48
2022-12-01T02:41:42.582Z,11.80
2022-12-01T02:46:49.728Z,13.10
2022-12-01T02:51:54.884Z,14.57
2022-12-01T02:56:56.787Z,11.77
2022-12-01T03:02:24.746Z,10.50
2022-12-01T03:07:54.310Z,11.23
2022-12-01T03:13:02.304Z,10.90
2022-12-01T03:18:09.645Z,10.52
2022-12-01T03:23:16.811Z,11.45
2022-12-01T03:28:23.000Z,11.87
2022-12-01T03:33:31.673Z,11.13
2022-12-01T03:38:36.846Z,11.48
2022-12-01T03:43:43.765Z,12.13
2022-12-01T03:48:46.773Z,11.47
2022-12-01T03:53:48.822Z,11.80
2022-12-01T03:58:56.660Z,12.90
2022-12-01T04:09:14.133Z,11.02
2022-12-01T04:14:16.013Z,10.82
2022-12-01T04:19:18.071Z,11.95
2022-12-01T04:24:20.133Z,11.00
2022-12-01T04:29:22.226Z,12.20
2022-12-01T04:34:24.397Z,11.60
2022-12-01T04:39:26.333Z,10.30
2022-12-01T04:44:34.294Z,11.40
2022-12-01T04:49:37.410Z,11.32
2022-12-01T04:54:39.223Z,10.75
2022-12-01T04:59:41.288Z,11.82
2022-12-01T05:04:48.310Z,11.50
2022-12-01T05:09:50.560Z,12.13
2022-12-01T05:14:53.013Z,10.82
2022-12-01T05:20:13.429Z,15.30
2022-12-01T05:25:15.367Z,11.55
2022-12-01T05:30:17.368Z,13.10
2022-12-01T05:35:19.511Z,12.18
2022-12-01T05:40:21.575Z,13.63
2022-12-01T05:45:24.515Z,12.10
2022-12-01T05:50:28.150Z,13.85
2022-12-01T05:55:32.632Z,13.68
2022-12-01T06:00:37.608Z,12.23
2022-12-01T06:05:44.964Z,12.75
2022-12-01T06:10:47.433Z,12.85
2022-12-01T06:16:04.889Z,13.90
2022-12-01T06:21:07.615Z,13.90
2022-12-01T06:26:09.494Z,11.70
2022-12-01T06:31:11.390Z,13.07
2022-12-01T06:36:13.519Z,11.55
2022-12-01T06:41:15.481Z,12.63
2022-12-01T06:46:20.231Z,13.93
2022-12-01T06:51:23.201Z,13.55
2022-12-01T06:56:26.220Z,12.63
2022-12-01T07:01:28.765Z,11.43
2022-12-01T07:06:32.417Z,12.52
2022-12-01T07:11:36.921Z,12.68
2022-12-01T07:16:39.142Z,11.68
2022-12-01T07:21:41.334Z,11.75
2022-12-01T07:26:43.709Z,14.63
2022-12-01T07:31:45.684Z,11.15
2022-12-01T07:36:47.993Z,13.20
2022-12-01T07:41:49.922Z,15.48
2022-12-01T07:46:52.063Z,14.73
2022-12-01T07:51:53.950Z,15.38
2022-12-01T07:56:55.937Z,14.38
2022-12-01T08:01:58.031Z,14.23
2022-12-01T08:07:00.086Z,16.45
2022-12-01T08:12:01.905Z,14.27
2022-12-01T08:17:03.713Z,16.65
2022-12-01T08:22:05.596Z,16.50
2022-12-01T08:27:07.561Z,15.25
2022-12-01T08:32:09.884Z,17.45
2022-12-01T08:37:11.939Z,15.60
2022-12-01T08:42:13.975Z,18.33
2022-12-01T08:47:18.897Z,17.45
2022-12-01T08:52:21.839Z,18.45
2022-12-01T08:57:23.907Z,18.20
2022-12-01T09:02:26.184Z,17.05
2022-12-01T09:07:29.010Z,16.88
2022-12-01T09:12:31.353Z,19.95
2022-12-01T09:17:33.646Z,15.13
2022-12-01T09:22:35.603Z,17.40
2022-12-01T09:27:37.634Z,16.70
2022-12-01T09:32:39.729Z,17.27
2022-12-01T09:37:41.938Z,20.08
2022-12-01T09:42:47.570Z,18.98
2022-12-01T09:47:50.100Z,18.95
2022-12-01T09:52:58.202Z,18.05
2022-12-01T09:58:03.179Z,21.50
2022-12-01T10:03:35.846Z,19.48
2022-12-01T10:08:51.724Z,18.75
2022-12-01T10:13:54.014Z,18.67
2022-12-01T10:19:22.103Z,20.08
2022-12-01T10:24:33.046Z,19.33
2022-12-01T10:29:47.970Z,18.65
2022-12-01T10:34:50.507Z,17.30
2022-12-01T10:39:55.315Z,19.33
2022-12-01T10:45:03.398Z,18.85
2022-12-01T10:50:05.937Z,19.63
2022-12-01T10:55:44.905Z,19.05
2022-12-01T11:01:00.601Z,16.90
2022-12-01T11:06:06.989Z,19.45
2022-12-01T11:11:30.539Z,20.25
2022-12-01T11:16:35.365Z,18.83
2022-12-01T11:21:52.062Z,20.05
2022-12-01T11:26:55.381Z,18.08
2022-12-01T11:32:02.020Z,17.35
2022-12-01T11:37:09.151Z,18.05
2022-12-01T11:42:13.844Z,16.63
2022-12-01T11:47:24.378Z,18.38
2022-12-01T11:52:36.854Z,18.20
2022-12-01T11:57:43.109Z,18.92
2022-12-01T12:03:03.881Z,19.38
2022-12-01T12:08:18.382Z,17.27
2022-12-01T12:13:35.751Z,19.33
2022-12-01T12:19:06.154Z,20.25
2022-12-01T12:24:26.015Z,18.67
2022-12-01T12:29:43.023Z,18.08
2022-12-01T12:34:45.135Z,18.73
2022-12-01T12:40:08.801Z,17.50
2022-12-01T12:45:20.165Z,16.60
2022-12-01T12:50:54.082Z,16.15
2022-12-01T12:56:03.318Z,18.42
2022-12-01T13:01:05.830Z,19.58
2022-12-01T13:06:20.534Z,20.38
2022-12-01T13:11:29.335Z,19.52
2022-12-01T13:16:36.940Z,20.05
2022-12-01T13:21:44.790Z,18.90
2022-12-01T13:31:54.464Z,16.85
2022-12-01T13:36:56.850Z,16.63
2022-12-01T13:42:20.190Z,17.45
2022-12-01T13:47:24.802Z,16.70
2022-12-01T13:52:31.465Z,17.77
2022-12-01T13:57:44.365Z,17.45
2022-12-01T14:02:46.480Z,17.73
2022-12-01T14:07:54.050Z,18.13
2022-12-01T14:13:19.982Z,18.25
2022-12-01T14:18:39.554Z,18.73
2022-12-01T14:24:01.416Z,18.67
2022-12-01T14:29:06.251Z,18.77
2022-12-01T14:34:18.783Z,17.88
2022-12-01T14:39:28.110Z,18.20
2022-12-01T14:44:55.536Z,20.08
2022-12-01T14:50:27.056Z,22.40
2022-12-01T14:55:41.942Z,17.98
2022-12-01T15:01:05.310Z,19.50
2022-12-01T15:06:08.813Z,18.83
2022-12-01T15:11:25.616Z,19.13
2022-12-01T15:16:32.681Z,21.15
2022-12-01T15:21:34.877Z,18.27
2022-12-01T15:26:47.110Z,18.02
2022-12-01T15:31:53.960Z,19.55
2022-12-01T15:36:57.175Z,15.73
2022-12-01T15:41:59.852Z,18.65
2022-12-01T15:47:36.161Z,17.65
2022-12-01T15:52:43.125Z,15.40
2022-12-01T15:57:47.338Z,16.57
2022-12-01T16:02:53.624Z,16.65
2022-12-01T16:08:13.429Z,15.93
2022-12-01T16:14:03.037Z,18.35
2022-12-01T16:19:08.285Z,18.15
2022-12-01T16:24:18.674Z,15.52
2022-12-01T16:29:23.047Z,14.68
2022-12-01T16:34:45.157Z,14.60
2022-12-01T16:39:47.548Z,17.67
2022-12-01T16:44:52.058Z,17.17
2022-12-01T16:49:54.540Z,16.08
2022-12-01T16:54:56.606Z,16.98
2022-12-01T16:59:58.545Z,18.10
2022-12-01T17:05:00.748Z,16.45
2022-12-01T17:10:02.977Z,19.48
2022-12-01T17:15:05.816Z,17.95
2022-12-01T17:20:09.014Z,18.20
2022-12-01T17:25:11.185Z,16.38
2022-12-01T17:30:13.967Z,15.52
2022-12-01T17:35:16.195Z,16.33
2022-12-01T17:40:18.848Z,17.02
2022-12-01T17:45:20.891Z,15.32
2022-12-01T17:50:23.018Z,15.23
2022-12-01T17:55:24.979Z,16.25
2022-12-01T18:00:27.045Z,15.05
2022-12-01T18:05:29.621Z,17.48
2022-12-01T18:10:31.657Z,15.27
2022-12-01T18:15:34.865Z,16.50
2022-12-01T18:20:43.935Z,17.45
2022-12-01T18:25:46.088Z,18.75
2022-12-01T18:30:49.448Z,19.02
2022-12-01T18:35:52.435Z,18.52
2022-12-01T18:40:59.219Z,17.48
2022-12-01T18:46:03.860Z,18.70
2022-12-01T18:51:07.916Z,18.50
2022-12-01T18:56:12.116Z,17.88
2022-12-01T19:01:18.782Z,17.88
2022-12-01T19:06:21.018Z,16.35
2022-12-01T19:11:22.989Z,18.55
2022-12-01T19:16:25.756Z,17.23
2022-12-01T19:21:28.346Z,17.73
2022-12-01T19:26:30.583Z,18.52
2022-12-01T19:31:32.741Z,17.17
2022-12-01T19:36:37.093Z,15.90
2022-12-01T19:41:39.000Z,16.92
2022-12-01T19:46:41.570Z,18.17
2022-12-01T19:51:43.540Z,18.50
2022-12-01T19:56:46.349Z,17.15
2022-12-01T20:01:48.593Z,17.95
2022-12-01T20:06:50.548Z,17.88
2022-12-01T20:11:53.894Z,18.17
2022-12-01T20:16:56.213Z,16.17
2022-12-01T20:21:58.349Z,17.35
2022-12-01T20:27:00.815Z,17.00
2022-12-01T20:32:06.011Z,17.50
2022-12-01T20:37:08.085Z,16.25
2022-12-01T20:42:12.461Z,15.50
2022-12-01T20:47:16.979Z,15.38
2022-12-01T20:52:18.910Z,18.67
2022-12-01T20:57:21.048Z,14.93
2022-12-01T21:02:23.037Z,15.55
2022-12-01T21:07:25.957Z,16.33
2022-12-01T21:12:47.948Z,16.60
2022-12-01T21:17:58.478Z,16.63
2022-12-01T21:23:12.524Z,16.45
2022-12-01T21:28:24.264Z,17.42
2022-12-01T21:33:37.143Z,17.65
2022-12-01T21:38:39.076Z,17.70
2022-12-01T21:43:41.068Z,15.55
2022-12-01T21:48:44.154Z,16.02
2022-12-01T21:53:47.415Z,15.20
2022-12-01T21:58:50.523Z,17.58
2022-12-01T22:03:54.156Z,17.60
2022-12-01T22:09:18.877Z,16.45
2022-12-01T22:14:29.110Z,18.40
2022-12-01T22:19:38.142Z,16.48
2022-12-01T22:24:47.484Z,15.77
2022-12-01T22:29:53.216Z,16.63
2022-12-01T22:34:59.083Z,16.42
2022-12-01T22:40:01.280Z,16.05
2022-12-01T22:45:24.186Z,17.92
2022-12-01T22:50:30.727Z,17.00
2022-12-01T22:55:32.555Z,16.48
2022-12-01T23:00:34.831Z,17.02
2022-12-01T23:05:37.082Z,16.00
2022-12-01T23:10:40.820Z,15.18
2022-12-01T23:15:47.603Z,16.33
2022-12-01T23:20:53.023Z,14.82
2022-12-01T23:25:55.094Z,16.75
2022-12-01T23:30:59.311Z,15.05
2022-12-01T23:36:10.853Z,17.83
2022-12-01T23:41:33.479Z,16.63
2022-12-01T23:46:36.715Z,16.92
2022-12-01T23:51:42.764Z,15.18
2022-12-01T23:56:51.764Z,16.08
